createdAt,value
2018-08-03T00:00:22.384Z,29.40
2018-08-03T00:00:55.432Z,29.40
2018-08-03T00:01:28.479Z,29.40
2018-08-03T00:02:01.520Z,29.40
2018-08-03T00:02:35.339Z,29.40
2018-08-03T00:03:08.371Z,29.40
2018-08-03T00:03:41.512Z,29.40
2018-08-03T00:04:14.526Z,29.40
2018-08-03T00:04:47.585Z,29.40
2018-08-03T00:05:20.627Z,29.30
2018-08-03T00:05:53.656Z,29.30
2018-08-03T00:06:26.713Z,29.40
2018-08-03T00:06:59.744Z,29.40
2018-08-03T00:07:32.779Z,29.30
2018-08-03T00:08:05.816Z,29.30
2018-08-03T00:08:38.850Z,29.30
2018-08-03T00:09:12.642Z,29.30
2018-08-03T00:09:46.454Z,29.30
2018-08-03T00:10:19.511Z,29.30
2018-08-03T00:10:52.547Z,29.30
2018-08-03T00:11:25.563Z,29.20
2018-08-03T00:11:58.592Z,29.20
2018-08-03T00:12:31.655Z,29.20
2018-08-03T00:13:04.688Z,29.30
2018-08-03T00:13:38.496Z,29.20
2018-08-03T00:14:11.535Z,29.20
2018-08-03T00:14:44.581Z,29.30
2018-08-03T00:15:17.615Z,29.30
2018-08-03T00:15:50.668Z,29.20
2018-08-03T00:16:23.680Z,29.20
2018-08-03T00:16:56.730Z,29.20
2018-08-03T00:17:29.756Z,29.20
2018-08-03T00:18:02.815Z,29.20
2018-08-03T00:18:35.858Z,29.10
2018-08-03T00:19:09.642Z,29.20
2018-08-03T00:19:42.676Z,29.10
2018-08-03T00:20:15.836Z,29.20
2018-08-03T00:20:48.868Z,29.10
2018-08-03T00:21:21.908Z,29.10
2018-08-03T00:21:54.943Z,29.20
2018-08-03T00:22:28.023Z,29.20
2018-08-03T00:23:01.043Z,29.10
2018-08-03T00:23:34.069Z,29.00
2018-08-03T00:24:07.114Z,29.10
2018-08-03T00:24:41.119Z,29.00
2018-08-03T00:25:14.157Z,29.10
2018-08-03T00:25:47.208Z,29.10
2018-08-03T00:26:20.255Z,29.00
2018-08-03T00:26:53.295Z,29.00
2018-08-03T00:27:26.332Z,28.90
2018-08-03T00:27:59.376Z,29.00
2018-08-03T00:28:32.419Z,28.90
2018-08-03T00:29:05.458Z,29.00
2018-08-03T00:29:38.495Z,28.90
2018-08-03T00:30:11.537Z,28.90
2018-08-03T00:30:44.572Z,28.90
2018-08-03T00:31:17.614Z,28.90
2018-08-03T00:31:50.662Z,28.90
2018-08-03T00:32:23.720Z,28.90
2018-08-03T00:32:56.748Z,28.80
2018-08-03T00:33:29.801Z,28.80
2018-08-03T00:34:03.599Z,28.80
2018-08-03T00:34:37.402Z,28.80
2018-08-03T00:35:10.437Z,28.80
2018-08-03T00:35:43.481Z,28.80
2018-08-03T00:36:16.534Z,28.70
2018-08-03T00:36:49.574Z,28.70
2018-08-03T00:37:23.408Z,28.70
2018-08-03T00:37:56.440Z,28.70
2018-08-03T00:38:29.474Z,28.70
2018-08-03T00:39:03.277Z,28.60
2018-08-03T00:39:36.306Z,28.60
2018-08-03T00:40:09.500Z,28.70
2018-08-03T00:40:42.519Z,28.60
2018-08-03T00:41:15.553Z,28.60
2018-08-03T00:41:48.592Z,28.60
2018-08-03T00:42:21.636Z,28.60
2018-08-03T00:42:54.688Z,28.60
2018-08-03T00:43:27.724Z,28.60
2018-08-03T00:44:01.548Z,28.60
2018-08-03T00:44:34.628Z,28.60
2018-08-03T00:45:07.673Z,28.60
2018-08-03T00:45:41.477Z,28.50
2018-08-03T00:46:14.496Z,28.50
2018-08-03T00:46:47.543Z,28.50
2018-08-03T00:47:20.591Z,28.50
2018-08-03T00:47:54.401Z,28.50
2018-08-03T00:48:27.487Z,28.50
2018-08-03T00:49:00.563Z,28.50
2018-08-03T00:49:34.364Z,28.40
2018-08-03T00:50:07.397Z,28.40
2018-08-03T00:50:40.459Z,28.50
2018-08-03T00:51:13.481Z,28.50
2018-08-03T00:51:46.515Z,28.50
2018-08-03T00:52:20.326Z,28.40
2018-08-03T00:52:54.125Z,28.40
2018-08-03T00:53:27.231Z,28.40
2018-08-03T00:54:00.257Z,28.40
2018-08-03T00:54:34.054Z,28.40
2018-08-03T00:55:07.863Z,28.40
2018-08-03T00:55:40.904Z,28.40
2018-08-03T00:56:13.943Z,28.40
2018-08-03T00:56:46.963Z,28.40
2018-08-03T00:57:20.756Z,28.40
2018-08-03T00:57:55.344Z,28.30
2018-08-03T00:58:28.368Z,28.30
2018-08-03T00:59:01.403Z,28.30
2018-08-03T00:59:35.219Z,28.30
2018-08-03T01:00:09.011Z,28.30
2018-08-03T01:00:42.059Z,28.20
2018-08-03T01:01:15.084Z,28.30
2018-08-03T01:01:48.123Z,28.20
2018-08-03T01:02:21.159Z,28.20
2018-08-03T01:02:54.195Z,28.20
2018-08-03T01:03:27.796Z,28.30
2018-08-03T01:04:00.843Z,28.20
2018-08-03T01:04:33.856Z,28.20
2018-08-03T01:05:06.885Z,28.20
2018-08-03T01:05:40.717Z,28.10
2018-08-03T01:06:14.505Z,28.10
2018-08-03T01:06:47.547Z,28.10
2018-08-03T01:07:21.343Z,28.10
2018-08-03T01:07:54.407Z,28.10
2018-08-03T01:08:28.204Z,28.10
2018-08-03T01:09:02.036Z,28.10
2018-08-03T01:09:35.079Z,28.10
2018-08-03T01:10:08.874Z,28.10
2018-08-03T01:10:41.911Z,28.10
2018-08-03T01:11:14.959Z,28.10
2018-08-03T01:11:47.993Z,28.10
2018-08-03T01:12:21.041Z,28.10
2018-08-03T01:12:54.084Z,28.10
2018-08-03T01:13:27.107Z,28.00
2018-08-03T01:14:00.144Z,28.00
2018-08-03T01:14:33.169Z,28.00
2018-08-03T01:15:06.219Z,28.00
2018-08-03T01:15:39.255Z,28.00
2018-08-03T01:16:12.297Z,28.00
2018-08-03T01:16:45.333Z,28.00
2018-08-03T01:17:18.558Z,28.00
2018-08-03T01:17:51.588Z,28.00
2018-08-03T01:18:24.644Z,28.00
2018-08-03T01:18:57.888Z,27.90
2018-08-03T01:19:30.912Z,27.90
2018-08-03T01:20:03.950Z,27.90
2018-08-03T01:20:36.995Z,27.90
2018-08-03T01:21:10.038Z,27.90
2018-08-03T01:21:43.063Z,27.90
2018-08-03T01:22:16.092Z,27.90
2018-08-03T01:22:49.136Z,27.90
2018-08-03T01:23:22.270Z,27.90
2018-08-03T01:23:56.065Z,27.90
2018-08-03T01:24:29.103Z,27.90
2018-08-03T01:25:02.249Z,27.90
2018-08-03T01:25:35.283Z,27.90
2018-08-03T01:26:08.297Z,27.90
2018-08-03T01:26:41.316Z,27.90
2018-08-03T01:27:14.337Z,27.90
2018-08-03T01:27:47.515Z,27.90
2018-08-03T01:28:20.548Z,27.90
2018-08-03T01:28:53.564Z,27.90
2018-08-03T01:29:26.579Z,27.90
2018-08-03T01:30:00.375Z,27.90
2018-08-03T01:30:33.404Z,27.80
2018-08-03T01:31:06.429Z,27.90
2018-08-03T01:31:39.480Z,27.90
2018-08-03T01:32:12.522Z,27.90
2018-08-03T01:32:45.568Z,27.90
2018-08-03T01:33:19.377Z,27.90
2018-08-03T01:33:52.458Z,27.90
2018-08-03T01:34:25.495Z,27.90
2018-08-03T01:34:58.510Z,27.90
2018-08-03T01:35:31.552Z,27.90
2018-08-03T01:36:04.604Z,27.90
2018-08-03T01:36:37.649Z,27.80
2018-08-03T01:37:10.687Z,27.80
2018-08-03T01:37:44.508Z,27.80
2018-08-03T01:38:17.527Z,27.80
2018-08-03T01:38:50.570Z,27.80
2018-08-03T01:39:23.600Z,27.80
2018-08-03T01:39:57.404Z,27.80
2018-08-03T01:40:30.454Z,27.80
2018-08-03T01:41:03.503Z,27.90
2018-08-03T01:41:36.544Z,27.80
2018-08-03T01:42:10.339Z,27.80
2018-08-03T01:42:43.389Z,27.80
2018-08-03T01:43:17.175Z,27.80
2018-08-03T01:43:50.975Z,27.80
2018-08-03T01:44:24.031Z,27.80
2018-08-03T01:44:57.074Z,27.80
2018-08-03T01:45:30.226Z,27.80
2018-08-03T01:46:03.262Z,27.80
2018-08-03T01:46:36.298Z,27.80
2018-08-03T01:47:09.311Z,27.80
2018-08-03T01:47:42.356Z,27.90
2018-08-03T01:48:16.152Z,27.90
2018-08-03T01:48:49.191Z,27.80
2018-08-03T01:49:22.231Z,27.90
2018-08-03T01:49:56.042Z,27.80
2018-08-03T01:50:29.104Z,27.80
2018-08-03T01:51:02.137Z,27.80
2018-08-03T01:51:35.155Z,27.80
2018-08-03T01:52:08.947Z,27.80
2018-08-03T01:52:42.763Z,27.80
2018-08-03T01:53:15.791Z,27.90
2018-08-03T01:53:48.836Z,27.90
2018-08-03T01:54:21.876Z,27.80
2018-08-03T01:54:54.911Z,27.90
2018-08-03T01:55:27.940Z,27.90
2018-08-03T01:56:00.968Z,27.90
2018-08-03T01:56:34.011Z,27.80
2018-08-03T01:57:07.037Z,27.90
2018-08-03T01:57:40.843Z,27.90
2018-08-03T01:58:13.879Z,27.90
2018-08-03T01:58:46.923Z,27.90
2018-08-03T01:59:19.937Z,27.90
2018-08-03T01:59:52.974Z,27.90
2018-08-03T02:00:25.999Z,27.90
2018-08-03T02:00:59.792Z,27.90
2018-08-03T02:01:32.840Z,27.90
2018-08-03T02:02:05.883Z,27.90
2018-08-03T02:02:38.913Z,28.00
2018-08-03T02:03:12.747Z,27.90
2018-08-03T02:03:45.768Z,27.90
2018-08-03T02:04:18.827Z,27.90
2018-08-03T02:04:52.064Z,27.90
2018-08-03T02:05:25.109Z,28.00
2018-08-03T02:05:58.924Z,28.00
2018-08-03T02:06:31.967Z,28.00
2018-08-03T02:07:04.989Z,28.00
2018-08-03T02:07:38.007Z,28.00
2018-08-03T02:08:11.046Z,27.90
2018-08-03T02:08:44.075Z,28.00
2018-08-03T02:09:17.875Z,28.00
2018-08-03T02:09:51.956Z,28.00
2018-08-03T02:10:25.021Z,28.00
2018-08-03T02:10:58.061Z,28.00
2018-08-03T02:11:31.105Z,28.00
2018-08-03T02:12:04.906Z,28.00
2018-08-03T02:12:37.935Z,28.00
2018-08-03T02:13:10.972Z,28.00
2018-08-03T02:13:44.773Z,28.00
2018-08-03T02:14:17.803Z,28.00
2018-08-03T02:14:51.588Z,28.00
2018-08-03T02:15:25.387Z,28.00
2018-08-03T02:15:59.193Z,28.00
2018-08-03T02:16:32.238Z,28.00
2018-08-03T02:17:05.271Z,28.00
2018-08-03T02:17:38.297Z,28.00
2018-08-03T02:18:12.109Z,28.00
2018-08-03T02:18:45.152Z,28.00
2018-08-03T02:19:18.187Z,28.00
2018-08-03T02:19:51.213Z,27.90
2018-08-03T02:20:25.024Z,27.90
2018-08-03T02:20:58.818Z,27.90
2018-08-03T02:21:32.642Z,27.90
2018-08-03T02:22:05.656Z,27.90
2018-08-03T02:22:38.696Z,27.90
2018-08-03T02:23:11.737Z,27.90
2018-08-03T02:23:44.796Z,27.90
2018-08-03T02:24:17.814Z,27.90
2018-08-03T02:24:50.858Z,27.90
2018-08-03T02:25:24.648Z,28.00
2018-08-03T02:25:58.447Z,27.90
2018-08-03T02:26:31.489Z,27.90
2018-08-03T02:27:04.511Z,27.80
2018-08-03T02:27:37.539Z,27.80
2018-08-03T02:28:10.568Z,27.90
2018-08-03T02:28:43.611Z,27.90
2018-08-03T02:29:16.650Z,27.80
2018-08-03T02:29:49.689Z,27.90
2018-08-03T02:30:22.703Z,27.80
2018-08-03T02:30:57.251Z,27.80
2018-08-03T02:31:30.280Z,27.80
2018-08-03T02:32:03.325Z,27.70
2018-08-03T02:32:36.348Z,27.70
2018-08-03T02:33:09.399Z,27.70
2018-08-03T02:33:42.435Z,27.70
2018-08-03T02:34:15.472Z,27.70
2018-08-03T02:34:48.501Z,27.70
2018-08-03T02:35:21.747Z,27.60
2018-08-03T02:35:54.774Z,27.70
2018-08-03T02:36:28.565Z,27.70
2018-08-03T02:37:01.604Z,27.60
2018-08-03T02:37:34.636Z,27.60
2018-08-03T02:38:07.673Z,27.60
2018-08-03T02:38:40.728Z,27.60
2018-08-03T02:39:13.756Z,27.60
2018-08-03T02:39:46.782Z,27.60
2018-08-03T02:40:19.805Z,27.60
2018-08-03T02:40:52.833Z,27.60
2018-08-03T02:41:25.880Z,27.60
2018-08-03T02:41:58.902Z,27.50
2018-08-03T02:42:31.928Z,27.50
2018-08-03T02:43:05.757Z,27.50
2018-08-03T02:43:39.009Z,27.50
2018-08-03T02:44:12.048Z,27.50
2018-08-03T02:44:45.092Z,27.40
2018-08-03T02:45:18.127Z,27.40
2018-08-03T02:45:51.928Z,27.40
2018-08-03T02:46:24.964Z,27.40
2018-08-03T02:46:58.004Z,27.40
2018-08-03T02:47:31.180Z,27.40
2018-08-03T02:48:04.230Z,27.40
2018-08-03T02:48:37.256Z,27.50
2018-08-03T02:49:10.599Z,27.40
2018-08-03T02:49:43.622Z,27.40
2018-08-03T02:50:16.656Z,27.40
2018-08-03T02:50:49.687Z,27.40
2018-08-03T02:51:22.737Z,27.40
2018-08-03T02:51:55.773Z,27.40
2018-08-03T02:52:28.807Z,27.40
2018-08-03T02:53:02.616Z,27.40
2018-08-03T02:53:35.643Z,27.40
2018-08-03T02:54:08.679Z,27.40
2018-08-03T02:54:41.890Z,27.40
2018-08-03T02:55:14.911Z,27.30
2018-08-03T02:55:47.939Z,27.40
2018-08-03T02:56:20.989Z,27.40
2018-08-03T02:56:54.179Z,27.40
2018-08-03T02:57:27.212Z,27.40
2018-08-03T02:58:01.020Z,27.30
2018-08-03T02:58:34.123Z,27.30
2018-08-03T02:59:07.148Z,27.30
2018-08-03T02:59:40.195Z,27.30
2018-08-03T03:00:13.236Z,27.30
2018-08-03T03:00:46.276Z,27.30
2018-08-03T03:01:19.392Z,27.40
2018-08-03T03:01:52.445Z,27.40
2018-08-03T03:02:25.484Z,27.30
2018-08-03T03:02:58.537Z,27.30
2018-08-03T03:03:31.566Z,27.30
2018-08-03T03:04:04.600Z,27.30
2018-08-03T03:04:37.623Z,27.30
2018-08-03T03:05:10.654Z,27.30
2018-08-03T03:05:43.680Z,27.30
2018-08-03T03:06:16.700Z,27.20
2018-08-03T03:06:50.510Z,27.10
2018-08-03T03:07:23.603Z,27.20
2018-08-03T03:07:56.560Z,27.20
2018-08-03T03:08:29.594Z,27.20
2018-08-03T03:09:02.659Z,27.20
2018-08-03T03:09:35.680Z,27.20
2018-08-03T03:10:08.716Z,27.20
2018-08-03T03:10:41.751Z,27.10
2018-08-03T03:11:14.777Z,27.20
2018-08-03T03:11:47.813Z,27.20
2018-08-03T03:12:20.835Z,27.20
2018-08-03T03:12:53.878Z,27.20
2018-08-03T03:13:27.087Z,27.20
2018-08-03T03:14:00.224Z,27.20
2018-08-03T03:14:33.252Z,27.10
2018-08-03T03:15:06.280Z,27.10
2018-08-03T03:15:39.372Z,27.10
2018-08-03T03:16:12.411Z,27.10
2018-08-03T03:16:45.443Z,27.10
2018-08-03T03:17:18.479Z,27.10
2018-08-03T03:17:51.514Z,27.10
2018-08-03T03:18:25.328Z,27.00
2018-08-03T03:18:58.497Z,27.00
2018-08-03T03:19:31.529Z,27.00
2018-08-03T03:20:04.547Z,27.00
2018-08-03T03:20:38.350Z,27.00
2018-08-03T03:21:11.419Z,27.00
2018-08-03T03:21:44.444Z,27.00
2018-08-03T03:22:17.472Z,27.00
2018-08-03T03:22:50.507Z,27.00
2018-08-03T03:23:23.564Z,27.00
2018-08-03T03:23:56.580Z,27.00
2018-08-03T03:24:30.364Z,27.00
2018-08-03T03:25:04.173Z,27.00
2018-08-03T03:25:37.201Z,27.00
2018-08-03T03:26:10.220Z,27.00
2018-08-03T03:26:43.256Z,27.00
2018-08-03T03:27:16.301Z,27.00
2018-08-03T03:27:49.321Z,27.00
2018-08-03T03:28:22.359Z,27.00
2018-08-03T03:28:55.392Z,27.00
2018-08-03T03:29:29.179Z,27.00
2018-08-03T03:30:02.996Z,27.00
2018-08-03T03:30:36.183Z,26.90
2018-08-03T03:31:09.338Z,26.90
2018-08-03T03:31:42.368Z,27.00
2018-08-03T03:32:15.403Z,27.00
2018-08-03T03:32:48.427Z,27.00
2018-08-03T03:33:21.486Z,26.90
2018-08-03T03:33:54.496Z,26.90
2018-08-03T03:34:27.529Z,26.90
2018-08-03T03:35:00.565Z,26.90
2018-08-03T03:35:33.598Z,26.90
2018-08-03T03:36:06.624Z,26.90
2018-08-03T03:36:39.652Z,26.90
2018-08-03T03:37:12.740Z,26.90
2018-08-03T03:37:45.707Z,26.90
2018-08-03T03:38:19.552Z,26.90
2018-08-03T03:38:52.562Z,26.90
2018-08-03T03:39:25.587Z,26.90
2018-08-03T03:39:58.639Z,26.90
2018-08-03T03:40:32.444Z,26.90
2018-08-03T03:41:05.520Z,26.90
2018-08-03T03:41:38.577Z,26.90
2018-08-03T03:42:12.431Z,26.90
2018-08-03T03:42:45.468Z,26.90
2018-08-03T03:43:18.528Z,26.90
2018-08-03T03:43:51.938Z,26.90
2018-08-03T03:44:24.971Z,26.90
2018-08-03T03:44:58.792Z,26.80
2018-08-03T03:45:31.837Z,26.90
2018-08-03T03:46:04.847Z,26.90
2018-08-03T03:46:37.883Z,26.90
2018-08-03T03:47:10.910Z,26.80
2018-08-03T03:47:44.831Z,26.80
2018-08-03T03:48:17.860Z,26.80
2018-08-03T03:48:50.884Z,26.90
2018-08-03T03:49:23.926Z,26.80
2018-08-03T03:49:56.945Z,26.80
2018-08-03T03:50:29.987Z,26.80
2018-08-03T03:51:03.070Z,26.80
2018-08-03T03:51:36.033Z,26.80
2018-08-03T03:52:09.103Z,26.80
2018-08-03T03:52:42.136Z,26.80
2018-08-03T03:53:15.240Z,26.80
2018-08-03T03:53:48.279Z,26.80
2018-08-03T03:54:22.084Z,26.80
2018-08-03T03:54:55.111Z,26.80
2018-08-03T03:55:28.924Z,26.80
2018-08-03T03:56:01.964Z,26.70
2018-08-03T03:56:34.990Z,26.80
2018-08-03T03:57:08.786Z,26.70
2018-08-03T03:57:42.596Z,26.70
2018-08-03T03:58:15.636Z,26.70
2018-08-03T03:58:48.675Z,26.70
2018-08-03T03:59:21.764Z,26.70
2018-08-03T03:59:55.489Z,26.70
2018-08-03T04:00:29.288Z,26.70
2018-08-03T04:01:02.387Z,26.70
2018-08-03T04:01:35.423Z,26.70
2018-08-03T04:02:08.451Z,26.70
2018-08-03T04:02:41.493Z,26.70
2018-08-03T04:03:15.289Z,26.70
2018-08-03T04:03:49.117Z,26.60
2018-08-03T04:04:22.912Z,26.70
2018-08-03T04:04:55.913Z,26.60
2018-08-03T04:05:28.944Z,26.60
2018-08-03T04:06:02.027Z,26.60
2018-08-03T04:06:35.052Z,26.60
2018-08-03T04:07:08.076Z,26.60
2018-08-03T04:07:41.108Z,26.60
2018-08-03T04:08:14.163Z,26.60
2018-08-03T04:08:47.205Z,26.70
2018-08-03T04:09:20.226Z,26.60
2018-08-03T04:09:54.030Z,26.60
2018-08-03T04:10:27.052Z,26.60
2018-08-03T04:11:00.137Z,26.60
2018-08-03T04:11:33.875Z,26.60
2018-08-03T04:12:06.903Z,26.50
2018-08-03T04:12:39.950Z,26.60
2018-08-03T04:13:12.972Z,26.60
2018-08-03T04:13:46.013Z,26.60
2018-08-03T04:14:19.027Z,26.50
2018-08-03T04:14:52.828Z,26.50
2018-08-03T04:15:26.621Z,26.50
2018-08-03T04:16:00.417Z,26.50
2018-08-03T04:16:33.446Z,26.50
2018-08-03T04:17:06.480Z,26.50
2018-08-03T04:17:39.515Z,26.60
2018-08-03T04:18:12.572Z,26.50
2018-08-03T04:18:45.800Z,26.50
2018-08-03T04:19:18.840Z,26.60
2018-08-03T04:19:51.870Z,26.50
2018-08-03T04:20:25.127Z,26.60
2018-08-03T04:20:58.239Z,26.60
2018-08-03T04:21:31.264Z,26.50
2018-08-03T04:22:05.061Z,26.50
2018-08-03T04:22:38.872Z,26.50
2018-08-03T04:23:11.897Z,26.50
2018-08-03T04:23:44.919Z,26.50
2018-08-03T04:24:17.955Z,26.50
2018-08-03T04:24:50.991Z,26.50
2018-08-03T04:25:24.085Z,26.50
2018-08-03T04:25:57.095Z,26.50
2018-08-03T04:26:30.899Z,26.50
2018-08-03T04:27:04.700Z,26.50
2018-08-03T04:27:38.503Z,26.50
2018-08-03T04:28:11.527Z,26.50
2018-08-03T04:28:44.565Z,26.50
2018-08-03T04:29:17.587Z,26.50
2018-08-03T04:29:50.627Z,26.50
2018-08-03T04:30:23.646Z,26.50
2018-08-03T04:30:56.680Z,26.50
2018-08-03T04:31:29.708Z,26.50
2018-08-03T04:32:03.498Z,26.40
2018-08-03T04:32:36.520Z,26.40
2018-08-03T04:33:09.553Z,26.50
2018-08-03T04:33:43.364Z,26.40
2018-08-03T04:34:16.393Z,26.40
2018-08-03T04:34:49.424Z,26.40
2018-08-03T04:35:23.236Z,26.40
2018-08-03T04:35:56.267Z,26.40
2018-08-03T04:36:29.292Z,26.40
2018-08-03T04:37:02.313Z,26.40
2018-08-03T04:37:35.340Z,26.40
2018-08-03T04:38:08.377Z,26.40
2018-08-03T04:38:41.417Z,26.50
2018-08-03T04:39:14.445Z,26.40
2018-08-03T04:39:47.476Z,26.40
2018-08-03T04:40:21.280Z,26.40
2018-08-03T04:40:54.310Z,26.40
2018-08-03T04:41:27.348Z,26.40
2018-08-03T04:42:01.140Z,26.40
2018-08-03T04:42:34.235Z,26.40
2018-08-03T04:43:07.187Z,26.40
2018-08-03T04:43:40.236Z,26.40
2018-08-03T04:44:13.273Z,26.40
2018-08-03T04:44:46.313Z,26.40
2018-08-03T04:45:19.364Z,26.40
2018-08-03T04:45:52.386Z,26.40
2018-08-03T04:46:26.188Z,26.40
2018-08-03T04:46:59.216Z,26.40
2018-08-03T04:47:32.255Z,26.40
2018-08-03T04:48:05.290Z,26.40
2018-08-03T04:48:38.393Z,26.40
2018-08-03T04:49:11.359Z,26.40
2018-08-03T04:49:44.383Z,26.40
2018-08-03T04:50:17.411Z,26.40
2018-08-03T04:50:50.452Z,26.40
2018-08-03T04:51:23.467Z,26.40
2018-08-03T04:51:56.499Z,26.40
2018-08-03T04:52:29.524Z,26.40
2018-08-03T04:53:02.543Z,26.40
2018-08-03T04:53:35.580Z,26.40
2018-08-03T04:54:08.624Z,26.40
2018-08-03T04:54:41.663Z,26.40
2018-08-03T04:55:14.706Z,26.40
2018-08-03T04:55:48.539Z,26.40
2018-08-03T04:56:21.551Z,26.40
2018-08-03T04:56:54.596Z,26.40
2018-08-03T04:57:27.620Z,26.40
2018-08-03T04:58:00.645Z,26.40
2018-08-03T04:58:33.679Z,26.40
2018-08-03T04:59:07.487Z,26.40
2018-08-03T04:59:40.518Z,26.40
2018-08-03T05:00:14.323Z,26.40
2018-08-03T05:00:47.351Z,26.40
2018-08-03T05:01:20.370Z,26.50
2018-08-03T05:01:53.425Z,26.50
2018-08-03T05:02:26.480Z,26.50
2018-08-03T05:03:00.287Z,26.40
2018-08-03T05:03:34.115Z,26.50
2018-08-03T05:04:07.146Z,26.40
2018-08-03T05:04:40.190Z,26.50
2018-08-03T05:05:13.204Z,26.50
2018-08-03T05:05:46.236Z,26.50
2018-08-03T05:06:19.289Z,26.50
2018-08-03T05:06:52.320Z,26.50
2018-08-03T05:07:25.340Z,26.50
2018-08-03T05:07:59.765Z,26.60
2018-08-03T05:08:33.544Z,26.50
2018-08-03T05:09:07.374Z,26.50
2018-08-03T05:09:40.383Z,26.50
2018-08-03T05:10:13.408Z,26.50
2018-08-03T05:10:46.439Z,26.50
2018-08-03T05:11:19.477Z,26.50
2018-08-03T05:11:52.502Z,26.50
2018-08-03T05:12:25.664Z,26.50
2018-08-03T05:12:58.654Z,26.50
2018-08-03T05:13:31.769Z,26.60
2018-08-03T05:14:04.791Z,26.50
2018-08-03T05:14:38.594Z,26.70
2018-08-03T05:15:11.703Z,26.70
2018-08-03T05:15:44.883Z,26.60
2018-08-03T05:16:17.917Z,26.50
2018-08-03T05:16:50.953Z,26.50
2018-08-03T05:17:23.979Z,26.60
2018-08-03T05:17:57.777Z,26.60
2018-08-03T05:18:31.589Z,26.60
2018-08-03T05:19:04.628Z,26.60
2018-08-03T05:19:37.657Z,26.60
2018-08-03T05:20:10.700Z,26.60
2018-08-03T05:20:44.507Z,26.70
2018-08-03T05:21:17.544Z,26.70
2018-08-03T05:21:50.572Z,26.70
2018-08-03T05:22:23.599Z,26.70
2018-08-03T05:22:57.406Z,26.70
2018-08-03T05:23:31.191Z,26.80
2018-08-03T05:24:04.988Z,26.70
2018-08-03T05:24:38.799Z,26.70
2018-08-03T05:25:12.606Z,26.70
2018-08-03T05:25:45.628Z,26.70
2018-08-03T05:26:18.654Z,26.80
2018-08-03T05:26:51.690Z,26.80
2018-08-03T05:27:25.479Z,26.90
2018-08-03T05:27:59.280Z,26.90
2018-08-03T05:28:33.091Z,26.90
2018-08-03T05:29:06.128Z,26.90
2018-08-03T05:29:39.945Z,26.90
2018-08-03T05:30:13.727Z,26.90
2018-08-03T05:30:46.844Z,26.90
2018-08-03T05:31:19.878Z,26.90
2018-08-03T05:31:52.912Z,26.90
2018-08-03T05:32:25.980Z,26.90
2018-08-03T05:32:59.132Z,26.90
2018-08-03T05:33:32.934Z,27.00
2018-08-03T05:34:05.976Z,27.00
2018-08-03T05:34:39.007Z,27.00
2018-08-03T05:35:12.036Z,27.00
2018-08-03T05:35:45.060Z,27.00
2018-08-03T05:36:18.172Z,27.00
2018-08-03T05:36:51.155Z,27.10
2018-08-03T05:37:24.208Z,27.10
2018-08-03T05:37:57.267Z,27.10
2018-08-03T05:38:30.304Z,27.10
2018-08-03T05:39:03.335Z,27.20
2018-08-03T05:39:36.361Z,27.20
2018-08-03T05:40:09.384Z,27.20
2018-08-03T05:40:43.180Z,27.20
2018-08-03T05:41:16.979Z,27.20
2018-08-03T05:41:50.776Z,27.30
2018-08-03T05:42:24.604Z,27.20
2018-08-03T05:42:58.368Z,27.20
2018-08-03T05:43:31.414Z,27.20
2018-08-03T05:44:04.444Z,27.30
2018-08-03T05:44:37.491Z,27.30
2018-08-03T05:45:11.267Z,27.30
2018-08-03T05:45:45.068Z,27.30
2018-08-03T05:46:18.862Z,27.30
2018-08-03T05:46:51.888Z,27.30
2018-08-03T05:47:24.917Z,27.30
2018-08-03T05:47:57.944Z,27.30
2018-08-03T05:48:31.752Z,27.40
2018-08-03T05:49:04.791Z,27.40
2018-08-03T05:49:37.819Z,27.40
2018-08-03T05:50:10.959Z,27.40
2018-08-03T05:50:43.971Z,27.40
2018-08-03T05:51:16.995Z,27.40
2018-08-03T05:51:50.018Z,27.50
2018-08-03T05:52:23.823Z,27.50
2018-08-03T05:52:57.623Z,27.50
2018-08-03T05:53:30.651Z,27.50
2018-08-03T05:54:04.456Z,27.50
2018-08-03T05:54:37.495Z,27.50
2018-08-03T05:55:10.536Z,27.60
2018-08-03T05:55:43.555Z,27.60
2018-08-03T05:56:16.603Z,27.60
2018-08-03T05:56:49.635Z,27.70
2018-08-03T05:57:23.436Z,27.70
2018-08-03T05:57:57.269Z,27.70
2018-08-03T05:58:30.272Z,27.70
2018-08-03T05:59:03.305Z,27.70
2018-08-03T05:59:36.333Z,27.70
2018-08-03T06:00:09.396Z,27.80
2018-08-03T06:00:42.423Z,27.90
2018-08-03T06:01:15.516Z,27.80
2018-08-03T06:01:48.550Z,27.90
2018-08-03T06:02:21.595Z,27.80
2018-08-03T06:02:54.616Z,27.90
2018-08-03T06:03:27.644Z,27.90
2018-08-03T06:04:00.693Z,27.90
2018-08-03T06:04:33.716Z,27.90
2018-08-03T06:05:07.520Z,27.90
2018-08-03T06:05:41.324Z,28.00
2018-08-03T06:06:14.368Z,28.00
2018-08-03T06:06:47.508Z,28.00
2018-08-03T06:07:20.547Z,27.70
2018-08-03T06:07:53.579Z,28.00
2018-08-03T06:08:26.640Z,28.00
2018-08-03T06:08:59.674Z,28.10
2018-08-03T06:09:32.750Z,28.10
2018-08-03T06:10:05.764Z,28.10
2018-08-03T06:10:39.036Z,28.20
2018-08-03T06:11:12.070Z,28.20
2018-08-03T06:11:45.866Z,28.20
2018-08-03T06:12:19.287Z,28.20
2018-08-03T06:12:52.875Z,28.30
2018-08-03T06:13:25.380Z,28.30
2018-08-03T06:13:57.890Z,28.30
2018-08-03T06:14:30.471Z,28.30
2018-08-03T06:15:03.004Z,28.30
2018-08-03T06:15:35.506Z,28.30
2018-08-03T06:16:09.229Z,28.40
2018-08-03T06:16:42.575Z,28.40
2018-08-03T06:17:15.098Z,28.40
2018-08-03T06:17:48.049Z,28.40
2018-08-03T06:18:21.093Z,28.50
2018-08-03T06:18:54.203Z,28.50
2018-08-03T06:19:27.255Z,28.50
2018-08-03T06:20:00.339Z,28.50
2018-08-03T06:20:33.360Z,28.50
2018-08-03T06:21:06.367Z,28.50
2018-08-03T06:21:39.403Z,28.50
2018-08-03T06:22:12.436Z,28.50
2018-08-03T06:22:45.460Z,28.60
2018-08-03T06:23:18.478Z,28.60
2018-08-03T06:23:51.528Z,28.60
2018-08-03T06:24:24.557Z,28.60
2018-08-03T06:24:57.619Z,28.70
2018-08-03T06:25:31.427Z,28.70
2018-08-03T06:26:04.457Z,28.70
2018-08-03T06:26:37.482Z,28.70
2018-08-03T06:27:10.511Z,28.80
2018-08-03T06:27:43.545Z,28.80
2018-08-03T06:28:16.585Z,28.80
2018-08-03T06:28:49.619Z,28.80
2018-08-03T06:29:22.660Z,28.80
2018-08-03T06:29:55.702Z,28.80
2018-08-03T06:30:28.740Z,28.80
2018-08-03T06:31:01.796Z,28.90
2018-08-03T06:31:34.831Z,28.90
2018-08-03T06:32:07.856Z,28.90
2018-08-03T06:32:40.900Z,29.00
2018-08-03T06:33:14.199Z,29.00
2018-08-03T06:33:47.246Z,29.00
2018-08-03T06:34:19.839Z,29.00
2018-08-03T06:34:53.143Z,29.10
2018-08-03T06:35:25.647Z,29.10
2018-08-03T06:35:58.608Z,29.10
2018-08-03T06:36:31.647Z,29.20
2018-08-03T06:37:04.692Z,29.20
2018-08-03T06:37:37.725Z,29.20
2018-08-03T06:38:10.772Z,29.30
2018-08-03T06:38:43.795Z,29.30
2018-08-03T06:39:16.827Z,29.30
2018-08-03T06:39:50.460Z,29.40
2018-08-03T06:40:23.502Z,29.40
2018-08-03T06:40:56.571Z,29.40
2018-08-03T06:41:29.589Z,29.40
2018-08-03T06:42:02.623Z,29.50
2018-08-03T06:42:35.694Z,29.50
2018-08-03T06:43:08.727Z,29.50
2018-08-03T06:43:41.767Z,29.50
2018-08-03T06:44:15.564Z,29.60
2018-08-03T06:44:49.383Z,29.60
2018-08-03T06:45:22.428Z,29.60
2018-08-03T06:45:55.472Z,29.70
2018-08-03T06:46:29.264Z,29.70
2018-08-03T06:47:02.299Z,29.70
2018-08-03T06:47:35.353Z,29.80
2018-08-03T06:48:08.384Z,29.80
2018-08-03T06:48:41.423Z,29.80
2018-08-03T06:49:14.447Z,29.80
2018-08-03T06:49:47.488Z,29.80
2018-08-03T06:50:20.531Z,29.80
2018-08-03T06:50:54.316Z,29.90
2018-08-03T06:51:28.128Z,29.90
2018-08-03T06:52:01.329Z,29.90
2018-08-03T06:52:34.356Z,29.90
2018-08-03T06:53:08.191Z,30.00
2018-08-03T06:53:41.225Z,30.00
2018-08-03T06:54:14.286Z,30.00
2018-08-03T06:54:47.408Z,30.10
2018-08-03T06:55:20.457Z,30.10
2018-08-03T06:55:53.517Z,30.10
2018-08-03T06:56:26.555Z,30.20
2018-08-03T06:56:59.582Z,30.20
2018-08-03T06:57:32.634Z,30.20
2018-08-03T06:58:05.669Z,30.30
2018-08-03T06:58:38.719Z,30.40
2018-08-03T06:59:11.765Z,30.40
2018-08-03T06:59:44.803Z,30.40
2018-08-03T07:00:17.878Z,30.50
2018-08-03T07:00:50.945Z,30.50
2018-08-03T07:01:23.982Z,30.50
2018-08-03T07:01:57.800Z,30.60
2018-08-03T07:02:30.828Z,30.50
2018-08-03T07:03:03.899Z,30.60
2018-08-03T07:03:36.932Z,30.60
2018-08-03T07:04:09.967Z,30.60
2018-08-03T07:04:43.781Z,30.70
2018-08-03T07:05:16.831Z,30.70
2018-08-03T07:05:49.863Z,30.70
2018-08-03T07:06:22.889Z,30.80
2018-08-03T07:06:56.700Z,30.80
2018-08-03T07:07:29.903Z,30.70